createdAt,value
2018-08-13T00:00:13.405Z,24.25
2018-08-13T00:00:45.524Z,24.26
2018-08-13T00:01:17.719Z,24.26
2018-08-13T00:01:49.848Z,24.29
2018-08-13T00:02:21.929Z,24.28
2018-08-13T00:02:54.101Z,24.28
2018-08-13T00:03:26.192Z,24.31
2018-08-13T00:03:58.281Z,24.31
2018-08-13T00:04:30.520Z,24.31
2018-08-13T00:05:02.653Z,24.30
2018-08-13T00:05:34.993Z,24.31
2018-08-13T00:06:07.100Z,24.31
2018-08-13T00:06:39.299Z,24.33
2018-08-13T00:07:11.429Z,24.33
2018-08-13T00:07:43.644Z,24.35
2018-08-13T00:08:15.930Z,24.35
2018-08-13T00:08:48.048Z,24.35
2018-08-13T00:09:20.153Z,24.32
2018-08-13T00:09:52.267Z,24.32
2018-08-13T00:10:24.329Z,24.32
2018-08-13T00:10:56.403Z,24.31
2018-08-13T00:11:28.483Z,24.32
2018-08-13T00:12:00.577Z,24.30
2018-08-13T00:12:32.686Z,24.31
2018-08-13T00:13:04.761Z,24.30
2018-08-13T00:13:36.950Z,24.29
2018-08-13T00:14:09.082Z,24.29
2018-08-13T00:14:41.253Z,24.28
2018-08-13T00:15:13.338Z,24.30
2018-08-13T00:15:45.436Z,24.31
2018-08-13T00:16:17.555Z,24.31
2018-08-13T00:16:49.641Z,24.30
2018-08-13T00:17:21.821Z,24.30
2018-08-13T00:17:54.050Z,24.31
2018-08-13T00:18:26.158Z,24.31
2018-08-13T00:18:58.301Z,24.29
2018-08-13T00:19:30.469Z,24.26
2018-08-13T00:20:02.521Z,24.22
2018-08-13T00:20:34.640Z,24.17
2018-08-13T00:21:06.720Z,24.14
2018-08-13T00:21:38.833Z,24.12
2018-08-13T00:22:10.895Z,24.10
2018-08-13T00:22:43.039Z,24.07
2018-08-13T00:23:15.304Z,24.02
2018-08-13T00:23:47.359Z,24.00
2018-08-13T00:24:19.439Z,23.98
2018-08-13T00:24:51.547Z,23.95
2018-08-13T00:25:23.637Z,23.93
2018-08-13T00:25:55.708Z,23.93
2018-08-13T00:26:27.837Z,23.91
2018-08-13T00:26:59.977Z,23.92
2018-08-13T00:27:32.046Z,23.93
2018-08-13T00:28:04.275Z,23.96
2018-08-13T00:28:36.392Z,23.97
2018-08-13T00:29:08.516Z,23.98
2018-08-13T00:29:40.840Z,23.99
2018-08-13T00:30:12.926Z,24.00
2018-08-13T00:30:45.037Z,24.00
2018-08-13T00:31:17.236Z,24.01
2018-08-13T00:31:49.329Z,24.04
2018-08-13T00:32:21.505Z,24.05
2018-08-13T00:32:53.566Z,24.04
2018-08-13T00:33:25.629Z,24.05
2018-08-13T00:33:57.748Z,24.05
2018-08-13T00:34:29.824Z,24.03
2018-08-13T00:35:01.926Z,24.08
2018-08-13T00:35:34.009Z,24.10
2018-08-13T00:36:06.121Z,24.15
2018-08-13T00:36:38.222Z,24.17
2018-08-13T00:37:10.441Z,24.19
2018-08-13T00:37:42.537Z,24.17
2018-08-13T00:38:14.690Z,24.12
2018-08-13T00:38:46.805Z,24.07
2018-08-13T00:39:18.936Z,24.04
2018-08-13T00:39:51.015Z,24.04
2018-08-13T00:40:23.234Z,24.04
2018-08-13T00:40:55.356Z,24.05
2018-08-13T00:41:27.465Z,24.09
2018-08-13T00:41:59.732Z,24.10
2018-08-13T00:42:31.985Z,24.11
2018-08-13T00:43:04.123Z,24.09
2018-08-13T00:43:36.244Z,24.05
2018-08-13T00:44:08.459Z,24.00
2018-08-13T00:44:40.644Z,23.98
2018-08-13T00:45:12.768Z,23.96
2018-08-13T00:45:44.947Z,23.96
2018-08-13T00:46:17.174Z,23.93
2018-08-13T00:46:49.355Z,23.95
2018-08-13T00:47:21.622Z,23.96
2018-08-13T00:47:53.674Z,23.98
2018-08-13T00:48:25.785Z,23.99
2018-08-13T00:48:57.898Z,24.01
2018-08-13T00:49:29.989Z,24.00
2018-08-13T00:50:02.086Z,24.00
2018-08-13T00:50:34.224Z,24.02
2018-08-13T00:51:06.486Z,24.03
2018-08-13T00:51:38.597Z,24.08
2018-08-13T00:52:10.685Z,24.12
2018-08-13T00:52:42.806Z,24.17
2018-08-13T00:53:15.045Z,24.18
2018-08-13T00:53:47.106Z,24.20
2018-08-13T00:54:19.256Z,24.22
2018-08-13T00:54:51.357Z,24.24
2018-08-13T00:55:23.460Z,24.24
2018-08-13T00:55:55.769Z,24.24
2018-08-13T00:56:28.098Z,24.24
2018-08-13T00:57:00.172Z,24.24
2018-08-13T00:57:32.244Z,24.25
2018-08-13T00:58:04.358Z,24.25
2018-08-13T00:58:36.557Z,24.26
2018-08-13T00:59:08.638Z,24.26
2018-08-13T00:59:40.750Z,24.25
2018-08-13T01:00:12.833Z,24.26
2018-08-13T01:00:44.974Z,24.26
2018-08-13T01:01:17.168Z,24.27
2018-08-13T01:01:49.276Z,24.27
2018-08-13T01:02:21.412Z,24.28
2018-08-13T01:02:53.473Z,24.27
2018-08-13T01:03:25.538Z,24.25
2018-08-13T01:03:57.672Z,24.24
2018-08-13T01:04:29.759Z,24.25
2018-08-13T01:05:02.043Z,24.25
2018-08-13T01:05:34.159Z,24.23
2018-08-13T01:06:06.314Z,24.22
2018-08-13T01:06:38.521Z,24.22
2018-08-13T01:07:10.626Z,24.20
2018-08-13T01:07:42.696Z,24.18
2018-08-13T01:08:14.793Z,24.19
2018-08-13T01:08:46.874Z,24.18
2018-08-13T01:09:18.984Z,24.19
2018-08-13T01:09:51.093Z,24.19
2018-08-13T01:10:23.225Z,24.19
2018-08-13T01:10:55.469Z,24.20
2018-08-13T01:11:27.530Z,24.21
2018-08-13T01:11:59.677Z,24.22
2018-08-13T01:12:31.847Z,24.19
2018-08-13T01:13:04.088Z,24.18
2018-08-13T01:13:36.171Z,24.18
2018-08-13T01:14:08.387Z,24.17
2018-08-13T01:14:40.673Z,24.17
2018-08-13T01:15:12.862Z,24.18
2018-08-13T01:15:45.057Z,24.19
2018-08-13T01:16:17.191Z,24.19
2018-08-13T01:16:49.276Z,24.19
2018-08-13T01:17:21.530Z,24.20
2018-08-13T01:17:53.643Z,24.21
2018-08-13T01:18:25.785Z,24.20
2018-08-13T01:18:57.910Z,24.21
2018-08-13T01:19:30.007Z,24.21
2018-08-13T01:20:02.087Z,24.22
2018-08-13T01:20:34.549Z,24.21
2018-08-13T01:21:06.625Z,24.20
2018-08-13T01:21:38.724Z,24.19
2018-08-13T01:22:10.806Z,24.18
2018-08-13T01:22:43.061Z,24.18
2018-08-13T01:23:15.279Z,24.18
2018-08-13T01:23:47.475Z,24.19
2018-08-13T01:24:19.552Z,24.19
2018-08-13T01:24:51.637Z,24.18
2018-08-13T01:25:23.759Z,24.18
2018-08-13T01:25:55.957Z,24.20
2018-08-13T01:26:28.057Z,24.19
2018-08-13T01:27:00.163Z,24.19
2018-08-13T01:27:32.232Z,24.18
2018-08-13T01:28:04.322Z,24.19
2018-08-13T01:28:36.435Z,24.21
2018-08-13T01:29:08.562Z,24.22
2018-08-13T01:29:40.918Z,24.22
2018-08-13T01:30:13.023Z,24.24
2018-08-13T01:30:45.118Z,24.24
2018-08-13T01:31:17.245Z,24.26
2018-08-13T01:31:49.368Z,24.26
2018-08-13T01:32:21.626Z,24.26
2018-08-13T01:32:53.847Z,24.26
2018-08-13T01:33:26.045Z,24.26
2018-08-13T01:33:58.108Z,24.25
2018-08-13T01:34:30.242Z,24.24
2018-08-13T01:35:02.356Z,24.19
2018-08-13T01:35:34.689Z,24.18
2018-08-13T01:36:07.011Z,24.15
2018-08-13T01:36:39.166Z,24.16
2018-08-13T01:37:11.424Z,24.18
2018-08-13T01:37:43.526Z,24.21
2018-08-13T01:38:15.731Z,24.22
2018-08-13T01:38:47.792Z,24.24
2018-08-13T01:39:19.947Z,24.23
2018-08-13T01:39:52.150Z,24.20
2018-08-13T01:40:24.272Z,24.14
2018-08-13T01:40:56.374Z,24.08
2018-08-13T01:41:28.466Z,24.02
2018-08-13T01:42:00.559Z,24.02
2018-08-13T01:42:32.675Z,24.03
2018-08-13T01:43:04.784Z,24.05
2018-08-13T01:43:36.887Z,24.09
2018-08-13T01:44:08.949Z,24.10
2018-08-13T01:44:41.173Z,24.12
2018-08-13T01:45:13.263Z,24.15
2018-08-13T01:45:45.476Z,24.18
2018-08-13T01:46:17.631Z,24.19
2018-08-13T01:46:49.734Z,24.20
2018-08-13T01:47:21.850Z,24.20
2018-08-13T01:47:53.937Z,24.21
2018-08-13T01:48:25.998Z,24.20
2018-08-13T01:48:58.125Z,24.19
2018-08-13T01:49:30.350Z,24.18
2018-08-13T01:50:02.592Z,24.17
2018-08-13T01:50:34.722Z,24.19
2018-08-13T01:51:06.870Z,24.21
2018-08-13T01:51:39.129Z,24.22
2018-08-13T01:52:11.335Z,24.22
2018-08-13T01:52:43.538Z,24.22
2018-08-13T01:53:15.641Z,24.18
2018-08-13T01:53:47.770Z,24.17
2018-08-13T01:54:19.829Z,24.14
2018-08-13T01:54:51.990Z,24.15
2018-08-13T01:55:24.310Z,24.14
2018-08-13T01:55:56.454Z,24.13
2018-08-13T01:56:28.553Z,24.12
2018-08-13T01:57:00.619Z,24.12
2018-08-13T01:57:32.842Z,24.11
2018-08-13T01:58:04.980Z,24.13
2018-08-13T01:58:37.154Z,24.11
2018-08-13T01:59:09.282Z,24.08
2018-08-13T01:59:41.345Z,24.07
2018-08-13T02:00:13.451Z,24.07
2018-08-13T02:00:45.687Z,24.09
2018-08-13T02:01:17.811Z,24.12
2018-08-13T02:01:50.042Z,24.15
2018-08-13T02:02:22.045Z,24.15
2018-08-13T02:02:54.162Z,24.15
2018-08-13T02:03:26.311Z,24.12
2018-08-13T02:03:58.425Z,24.12
2018-08-13T02:04:30.564Z,24.10
2018-08-13T02:05:02.713Z,24.08
2018-08-13T02:05:34.770Z,24.07
2018-08-13T02:06:06.854Z,24.05
2018-08-13T02:06:38.925Z,24.10
2018-08-13T02:07:11.152Z,24.10
2018-08-13T02:07:43.483Z,24.11
2018-08-13T02:08:15.554Z,24.12
2018-08-13T02:08:47.790Z,24.12
2018-08-13T02:09:19.852Z,24.12
2018-08-13T02:09:52.009Z,24.12
2018-08-13T02:10:24.113Z,24.14
2018-08-13T02:10:56.214Z,24.15
2018-08-13T02:11:28.282Z,24.14
2018-08-13T02:12:00.431Z,24.11
2018-08-13T02:12:32.548Z,24.09
2018-08-13T02:13:04.685Z,24.05
2018-08-13T02:13:36.786Z,24.03
2018-08-13T02:14:08.931Z,24.00
2018-08-13T02:14:41.013Z,24.00
2018-08-13T02:15:13.230Z,24.02
2018-08-13T02:15:45.317Z,24.00
2018-08-13T02:16:17.536Z,24.01
2018-08-13T02:16:49.649Z,24.02
2018-08-13T02:17:21.925Z,24.07
2018-08-13T02:17:54.060Z,24.10
2018-08-13T02:18:26.317Z,24.12
2018-08-13T02:18:58.426Z,24.12
2018-08-13T02:19:30.557Z,24.12
2018-08-13T02:20:02.781Z,24.10
2018-08-13T02:20:34.966Z,24.07
2018-08-13T02:21:07.041Z,24.05
2018-08-13T02:21:39.250Z,24.07
2018-08-13T02:22:11.437Z,24.05
2018-08-13T02:22:43.509Z,24.03
2018-08-13T02:23:15.649Z,24.02
2018-08-13T02:23:47.899Z,24.01
2018-08-13T02:24:20.114Z,24.00
2018-08-13T02:24:52.231Z,24.00
2018-08-13T02:25:24.417Z,24.03
2018-08-13T02:25:56.617Z,24.04
2018-08-13T02:26:28.671Z,24.05
2018-08-13T02:27:00.922Z,24.03
2018-08-13T02:27:33.179Z,24.02
2018-08-13T02:28:05.390Z,24.02
2018-08-13T02:28:37.483Z,24.05
2018-08-13T02:29:09.593Z,24.09
2018-08-13T02:29:41.685Z,24.12
2018-08-13T02:30:13.819Z,24.13
2018-08-13T02:30:45.950Z,24.13
2018-08-13T02:31:18.062Z,24.12
2018-08-13T02:31:50.158Z,24.12
2018-08-13T02:32:22.304Z,24.12
2018-08-13T02:32:54.539Z,24.09
2018-08-13T02:33:26.680Z,24.08
2018-08-13T02:33:58.777Z,24.07
2018-08-13T02:34:30.977Z,24.08
2018-08-13T02:35:03.126Z,24.08
2018-08-13T02:35:35.211Z,24.10
2018-08-13T02:36:07.290Z,24.09
2018-08-13T02:36:39.457Z,24.05
2018-08-13T02:37:11.654Z,24.02
2018-08-13T02:37:43.738Z,23.97
2018-08-13T02:38:15.880Z,23.92
2018-08-13T02:38:47.952Z,23.90
2018-08-13T02:39:20.115Z,23.85
2018-08-13T02:39:52.188Z,23.82
2018-08-13T02:40:24.335Z,23.81
2018-08-13T02:40:56.417Z,23.81
2018-08-13T02:41:28.478Z,23.82
2018-08-13T02:42:00.755Z,23.83
2018-08-13T02:42:32.842Z,23.82
2018-08-13T02:43:04.992Z,23.82
2018-08-13T02:43:37.121Z,23.83
2018-08-13T02:44:09.200Z,23.82
2018-08-13T02:44:41.453Z,23.83
2018-08-13T02:45:13.587Z,23.83
2018-08-13T02:45:45.667Z,23.80
2018-08-13T02:46:17.853Z,23.80
2018-08-13T02:46:50.122Z,23.76
2018-08-13T02:47:22.303Z,23.74
2018-08-13T02:47:54.416Z,23.71
2018-08-13T02:48:26.548Z,23.70
2018-08-13T02:48:58.650Z,23.68
2018-08-13T02:49:30.880Z,23.65
2018-08-13T02:50:03.028Z,23.65
2018-08-13T02:50:35.124Z,23.63
2018-08-13T02:51:07.344Z,23.63
2018-08-13T02:51:39.449Z,23.62
2018-08-13T02:52:11.697Z,23.61
2018-08-13T02:52:43.915Z,23.59
2018-08-13T02:53:16.005Z,23.60
2018-08-13T02:53:48.117Z,23.62
2018-08-13T02:54:20.191Z,23.65
2018-08-13T02:54:52.245Z,23.65
2018-08-13T02:55:24.368Z,23.63
2018-08-13T02:55:56.561Z,23.65
2018-08-13T02:56:28.681Z,23.63
2018-08-13T02:57:00.788Z,23.64
2018-08-13T02:57:32.849Z,23.64
2018-08-13T02:58:04.951Z,23.65
2018-08-13T02:58:36.987Z,23.63
2018-08-13T02:59:09.105Z,23.63
2018-08-13T02:59:41.174Z,23.62
2018-08-13T03:00:13.410Z,23.60
2018-08-13T03:00:45.549Z,23.60
2018-08-13T03:01:17.714Z,23.57
2018-08-13T03:01:49.794Z,23.56
2018-08-13T03:02:21.894Z,23.55
2018-08-13T03:02:53.966Z,23.51
2018-08-13T03:03:26.057Z,23.51
2018-08-13T03:03:58.154Z,23.49
2018-08-13T03:04:30.333Z,23.49
2018-08-13T03:05:02.426Z,23.50
2018-08-13T03:05:34.474Z,23.50
2018-08-13T03:06:06.761Z,23.50
2018-08-13T03:06:38.978Z,23.53
2018-08-13T03:07:11.059Z,23.57
2018-08-13T03:07:43.174Z,23.57
2018-08-13T03:08:15.252Z,23.58
2018-08-13T03:08:47.334Z,23.61
2018-08-13T03:09:19.810Z,23.66
2018-08-13T03:09:51.961Z,23.70
2018-08-13T03:10:24.333Z,23.71
2018-08-13T03:10:56.476Z,23.73
2018-08-13T03:11:28.548Z,23.76
2018-08-13T03:12:00.663Z,23.75
2018-08-13T03:12:32.982Z,23.77
2018-08-13T03:13:05.142Z,23.79
2018-08-13T03:13:37.363Z,23.80
2018-08-13T03:14:09.439Z,23.83
2018-08-13T03:14:41.561Z,23.84
2018-08-13T03:15:13.633Z,23.82
2018-08-13T03:15:45.722Z,23.84
2018-08-13T03:16:17.875Z,23.83
2018-08-13T03:16:50.001Z,23.79
2018-08-13T03:17:22.241Z,23.80
2018-08-13T03:17:54.388Z,23.79
2018-08-13T03:18:26.534Z,23.81
2018-08-13T03:18:58.968Z,23.79
2018-08-13T03:19:31.281Z,23.80
2018-08-13T03:20:03.352Z,23.81
2018-08-13T03:20:35.443Z,23.82
2018-08-13T03:21:07.558Z,23.83
2018-08-13T03:21:39.653Z,23.80
2018-08-13T03:22:11.858Z,23.80
2018-08-13T03:22:43.981Z,23.79
2018-08-13T03:23:16.057Z,23.78
2018-08-13T03:23:48.170Z,23.79
2018-08-13T03:24:20.324Z,23.81
2018-08-13T03:24:52.738Z,23.80
2018-08-13T03:25:24.884Z,23.84
2018-08-13T03:25:56.977Z,23.85
2018-08-13T03:26:29.198Z,23.88
2018-08-13T03:27:01.326Z,23.85
2018-08-13T03:27:33.465Z,23.82
2018-08-13T03:28:05.638Z,23.79
2018-08-13T03:28:37.877Z,23.79
2018-08-13T03:29:09.972Z,23.79
2018-08-13T03:29:42.073Z,23.79
2018-08-13T03:30:14.203Z,23.82
2018-08-13T03:30:46.417Z,23.81
2018-08-13T03:31:18.488Z,23.82
2018-08-13T03:31:50.594Z,23.82
2018-08-13T03:32:22.700Z,23.85
2018-08-13T03:32:54.889Z,23.85
2018-08-13T03:33:27.297Z,23.86
2018-08-13T03:33:59.413Z,23.84
2018-08-13T03:34:31.621Z,23.81
2018-08-13T03:35:03.701Z,23.80
2018-08-13T03:35:35.807Z,23.81
2018-08-13T03:36:07.926Z,23.82
2018-08-13T03:36:40.031Z,23.81
2018-08-13T03:37:12.160Z,23.81
2018-08-13T03:37:44.248Z,23.83
2018-08-13T03:38:16.365Z,23.84
2018-08-13T03:38:48.605Z,23.82
2018-08-13T03:39:20.734Z,23.82
2018-08-13T03:39:52.802Z,23.81
2018-08-13T03:40:25.018Z,23.77
2018-08-13T03:40:57.281Z,23.75
2018-08-13T03:41:29.425Z,23.76
2018-08-13T03:42:01.502Z,23.75
2018-08-13T03:42:33.602Z,23.74
2018-08-13T03:43:05.706Z,23.74
2018-08-13T03:43:37.793Z,23.74
2018-08-13T03:44:09.873Z,23.74
2018-08-13T03:44:41.981Z,23.77
2018-08-13T03:45:14.104Z,23.78
2018-08-13T03:45:46.222Z,23.79
2018-08-13T03:46:18.293Z,23.79
2018-08-13T03:46:50.420Z,23.79
2018-08-13T03:47:22.537Z,23.82
2018-08-13T03:47:54.668Z,23.83
2018-08-13T03:48:26.802Z,23.84
2018-08-13T03:48:58.898Z,23.85
2018-08-13T03:49:30.952Z,23.86
2018-08-13T03:50:03.140Z,23.90
2018-08-13T03:50:35.405Z,23.91
2018-08-13T03:51:07.476Z,23.93
2018-08-13T03:51:39.574Z,23.92
2018-08-13T03:52:11.660Z,23.93
2018-08-13T03:52:43.753Z,23.93
2018-08-13T03:53:15.882Z,23.90
2018-08-13T03:53:48.348Z,23.88
2018-08-13T03:54:20.738Z,23.87
2018-08-13T03:54:52.855Z,23.88
2018-08-13T03:55:24.978Z,23.89
2018-08-13T03:55:57.148Z,23.89
2018-08-13T03:56:29.249Z,23.89
2018-08-13T03:57:01.448Z,23.89
2018-08-13T03:57:33.601Z,23.90
2018-08-13T03:58:05.860Z,23.91
2018-08-13T03:58:37.948Z,23.92
2018-08-13T03:59:10.229Z,23.92
2018-08-13T03:59:42.382Z,23.94
2018-08-13T04:00:14.452Z,23.93
2018-08-13T04:00:46.562Z,23.95
2018-08-13T04:01:18.644Z,23.93
2018-08-13T04:01:50.898Z,23.93
2018-08-13T04:02:22.976Z,23.96
2018-08-13T04:02:55.107Z,23.98
2018-08-13T04:03:27.329Z,24.01
2018-08-13T04:03:59.400Z,24.00
2018-08-13T04:04:31.568Z,24.01
2018-08-13T04:05:03.658Z,24.02
2018-08-13T04:05:35.749Z,24.03
2018-08-13T04:06:07.867Z,24.04
2018-08-13T04:06:39.968Z,24.07
2018-08-13T04:07:12.099Z,24.08
2018-08-13T04:07:44.324Z,24.05
2018-08-13T04:08:16.423Z,24.04
2018-08-13T04:08:48.602Z,24.03
2018-08-13T04:09:20.705Z,24.05
2018-08-13T04:09:52.801Z,24.07
2018-08-13T04:10:25.182Z,24.07
2018-08-13T04:10:57.249Z,24.07
2018-08-13T04:11:29.365Z,24.10
2018-08-13T04:12:01.440Z,24.09
2018-08-13T04:12:33.633Z,24.08
2018-08-13T04:13:05.694Z,24.04
2018-08-13T04:13:37.915Z,24.07
2018-08-13T04:14:10.022Z,24.07
2018-08-13T04:14:42.220Z,24.05
2018-08-13T04:15:14.434Z,24.08
2018-08-13T04:15:46.632Z,24.08
2018-08-13T04:16:19.045Z,24.07
2018-08-13T04:16:51.102Z,24.04
2018-08-13T04:17:23.207Z,24.01
2018-08-13T04:17:55.314Z,24.01
2018-08-13T04:18:27.384Z,24.02
2018-08-13T04:18:59.461Z,24.02
2018-08-13T04:19:31.575Z,24.02
2018-08-13T04:20:03.674Z,24.04
2018-08-13T04:20:35.825Z,24.02
2018-08-13T04:21:08.128Z,24.03
2018-08-13T04:21:40.292Z,24.05
2018-08-13T04:22:12.418Z,24.07
2018-08-13T04:22:44.578Z,24.09
2018-08-13T04:23:16.685Z,24.09
2018-08-13T04:23:48.864Z,24.05
2018-08-13T04:24:20.959Z,24.05
2018-08-13T04:24:53.018Z,24.03
2018-08-13T04:25:25.200Z,23.98
2018-08-13T04:25:57.319Z,23.98
2018-08-13T04:26:29.411Z,23.97
2018-08-13T04:27:01.529Z,23.95
2018-08-13T04:27:33.819Z,23.93
2018-08-13T04:28:05.905Z,23.94
2018-08-13T04:28:38.022Z,23.93
2018-08-13T04:29:10.236Z,23.93
2018-08-13T04:29:42.537Z,23.94
2018-08-13T04:30:14.603Z,23.93
2018-08-13T04:30:46.676Z,23.94
2018-08-13T04:31:19.067Z,23.93
2018-08-13T04:31:51.283Z,23.91
2018-08-13T04:32:23.369Z,23.90
2018-08-13T04:32:55.490Z,23.89
2018-08-13T04:33:27.781Z,23.91
2018-08-13T04:33:59.914Z,23.90
2018-08-13T04:34:32.056Z,23.90
2018-08-13T04:35:04.130Z,23.90
2018-08-13T04:35:36.193Z,23.89
2018-08-13T04:36:08.303Z,23.89
2018-08-13T04:36:40.434Z,23.89
2018-08-13T04:37:12.518Z,23.89
2018-08-13T04:37:44.628Z,23.88
2018-08-13T04:38:16.722Z,23.86
2018-08-13T04:38:48.874Z,23.84
2018-08-13T04:39:20.930Z,23.84
2018-08-13T04:39:53.031Z,23.86
2018-08-13T04:40:25.098Z,23.87
2018-08-13T04:40:57.171Z,23.87
2018-08-13T04:41:29.255Z,23.86
2018-08-13T04:42:01.346Z,23.85
2018-08-13T04:42:33.438Z,23.85
2018-08-13T04:43:05.505Z,23.83
2018-08-13T04:43:37.601Z,23.81
2018-08-13T04:44:10.071Z,23.79
2018-08-13T04:44:42.142Z,23.80
2018-08-13T04:45:14.411Z,23.79
2018-08-13T04:45:46.540Z,23.80
2018-08-13T04:46:18.660Z,23.80
2018-08-13T04:46:50.795Z,23.80
2018-08-13T04:47:22.884Z,23.81
2018-08-13T04:47:55.174Z,23.80
2018-08-13T04:48:27.593Z,23.81
2018-08-13T04:48:59.658Z,23.80
2018-08-13T04:49:31.740Z,23.81
2018-08-13T04:50:03.835Z,23.81
2018-08-13T04:50:35.930Z,23.81
2018-08-13T04:51:08.030Z,23.80
2018-08-13T04:51:40.123Z,23.80
2018-08-13T04:52:12.220Z,23.79
2018-08-13T04:52:44.372Z,23.79
2018-08-13T04:53:16.461Z,23.79
2018-08-13T04:53:48.571Z,23.78
2018-08-13T04:54:20.963Z,23.82
2018-08-13T04:54:53.056Z,23.83
2018-08-13T04:55:25.210Z,23.82
2018-08-13T04:55:57.278Z,23.83
2018-08-13T04:56:29.363Z,23.84
2018-08-13T04:57:01.499Z,23.83
2018-08-13T04:57:33.657Z,23.82
2018-08-13T04:58:05.745Z,23.84
2018-08-13T04:58:37.887Z,23.86
2018-08-13T04:59:09.968Z,23.87
2018-08-13T04:59:42.089Z,23.89
2018-08-13T05:00:14.200Z,23.90
2018-08-13T05:00:46.342Z,23.91
2018-08-13T05:01:18.495Z,23.92
2018-08-13T05:01:50.564Z,23.90
2018-08-13T05:02:22.892Z,23.90
2018-08-13T05:02:54.953Z,23.92
2018-08-13T05:03:27.113Z,23.91
2018-08-13T05:03:59.197Z,23.93
2018-08-13T05:04:31.309Z,23.93
2018-08-13T05:05:03.538Z,23.93
2018-08-13T05:05:35.634Z,23.93
2018-08-13T05:06:07.837Z,23.95
2018-08-13T05:06:39.977Z,23.98
2018-08-13T05:07:12.137Z,23.98
2018-08-13T05:07:44.221Z,23.99
2018-08-13T05:08:16.314Z,24.00
2018-08-13T05:08:48.426Z,23.98
2018-08-13T05:09:20.589Z,23.99
2018-08-13T05:09:52.705Z,23.98
2018-08-13T05:10:24.953Z,23.98
2018-08-13T05:10:57.165Z,23.96
2018-08-13T05:11:29.210Z,23.94
2018-08-13T05:12:01.289Z,23.92
2018-08-13T05:12:33.428Z,23.89
2018-08-13T05:13:05.665Z,23.86
2018-08-13T05:13:37.781Z,23.83
2018-08-13T05:14:09.900Z,23.79
2018-08-13T05:14:41.983Z,23.77
2018-08-13T05:15:14.074Z,23.77
2018-08-13T05:15:46.209Z,23.78
2018-08-13T05:16:18.286Z,23.78
2018-08-13T05:16:50.510Z,23.76
2018-08-13T05:17:22.677Z,23.76
2018-08-13T05:17:54.822Z,23.75
2018-08-13T05:18:26.941Z,23.74
2018-08-13T05:18:59.042Z,23.76
2018-08-13T05:19:31.181Z,23.76
2018-08-13T05:20:03.577Z,23.76
2018-08-13T05:20:35.836Z,23.77
2018-08-13T05:21:07.929Z,23.76
2018-08-13T05:21:40.003Z,23.77
2018-08-13T05:22:12.282Z,23.76
2018-08-13T05:22:44.402Z,23.76
2018-08-13T05:23:16.556Z,23.75
2018-08-13T05:23:48.726Z,23.77
2018-08-13T05:24:20.912Z,23.79
2018-08-13T05:24:53.028Z,23.80
2018-08-13T05:25:25.115Z,23.81
2018-08-13T05:25:57.216Z,23.82
2018-08-13T05:26:29.594Z,23.83
2018-08-13T05:27:01.710Z,23.85
2018-08-13T05:27:33.961Z,23.86
2018-08-13T05:28:06.214Z,23.85
2018-08-13T05:28:38.283Z,23.85
2018-08-13T05:29:10.441Z,23.84
2018-08-13T05:29:42.518Z,23.87
2018-08-13T05:30:14.637Z,23.87
2018-08-13T05:30:46.927Z,23.90
2018-08-13T05:31:19.324Z,23.95
2018-08-13T05:31:51.431Z,23.99
2018-08-13T05:32:23.634Z,24.00
2018-08-13T05:32:55.762Z,24.03
2018-08-13T05:33:27.987Z,24.02
2018-08-13T05:34:00.810Z,24.02
2018-08-13T05:34:32.941Z,24.03
2018-08-13T05:35:05.073Z,24.05
2018-08-13T05:35:37.165Z,24.05
2018-08-13T05:36:09.458Z,24.05
2018-08-13T05:36:41.582Z,24.07
2018-08-13T05:37:13.761Z,24.08
2018-08-13T05:37:45.916Z,24.09
2018-08-13T05:38:18.265Z,24.07
2018-08-13T05:38:50.337Z,24.07
2018-08-13T05:39:22.450Z,24.08
2018-08-13T05:39:54.588Z,24.08
2018-08-13T05:40:26.678Z,24.05
2018-08-13T05:40:58.811Z,24.03
2018-08-13T05:41:30.912Z,24.03
2018-08-13T05:42:02.987Z,24.02
2018-08-13T05:42:35.120Z,24.00
2018-08-13T05:43:07.218Z,24.00
2018-08-13T05:43:39.585Z,23.98
2018-08-13T05:44:11.653Z,23.99
2018-08-13T05:44:43.749Z,23.99
2018-08-13T05:45:15.854Z,23.99
2018-08-13T05:45:48.198Z,24.00
2018-08-13T05:46:20.467Z,24.03
2018-08-13T05:46:52.692Z,24.07
2018-08-13T05:47:24.949Z,24.09
2018-08-13T05:47:57.056Z,24.09
2018-08-13T05:48:29.157Z,24.10
2018-08-13T05:49:01.265Z,24.08
2018-08-13T05:49:33.354Z,24.07
2018-08-13T05:50:05.601Z,24.07
2018-08-13T05:50:37.819Z,24.08
2018-08-13T05:51:09.923Z,24.08
2018-08-13T05:51:42.178Z,24.08
2018-08-13T05:52:14.286Z,24.07
2018-08-13T05:52:46.522Z,24.08
2018-08-13T05:53:18.814Z,24.08
2018-08-13T05:53:51.274Z,24.04
2018-08-13T05:54:23.377Z,24.08
2018-08-13T05:54:55.536Z,24.09
2018-08-13T05:55:27.865Z,24.10
2018-08-13T05:56:00.011Z,24.12
2018-08-13T05:56:32.103Z,24.13
2018-08-13T05:57:04.216Z,24.12
2018-08-13T05:57:36.366Z,24.14
2018-08-13T05:58:08.930Z,24.13
2018-08-13T05:58:41.230Z,24.15
2018-08-13T05:59:13.437Z,24.14
2018-08-13T05:59:45.544Z,24.16
2018-08-13T06:00:17.865Z,24.15
2018-08-13T06:00:50.147Z,24.13
2018-08-13T06:01:22.242Z,24.13
2018-08-13T06:01:54.349Z,24.13
2018-08-13T06:02:26.468Z,24.11
2018-08-13T06:02:58.798Z,24.11
2018-08-13T06:03:30.793Z,24.10
2018-08-13T06:04:03.034Z,24.08
2018-08-13T06:04:35.286Z,24.08
2018-08-13T06:05:07.546Z,24.09
2018-08-13T06:05:39.657Z,24.09
2018-08-13T06:06:11.762Z,24.11
2018-08-13T06:06:43.901Z,24.11
2018-08-13T06:07:16.127Z,24.09
2018-08-13T06:07:48.270Z,24.10
2018-08-13T06:08:20.355Z,24.12
2018-08-13T06:08:52.481Z,24.12
2018-08-13T06:09:24.818Z,24.12
2018-08-13T06:09:57.130Z,24.09
2018-08-13T06:10:29.282Z,24.09
2018-08-13T06:11:01.413Z,24.09
2018-08-13T06:11:33.916Z,24.11
2018-08-13T06:12:06.163Z,24.11
2018-08-13T06:12:38.356Z,24.13
2018-08-13T06:13:10.511Z,24.14
2018-08-13T06:13:42.659Z,24.14
2018-08-13T06:14:14.802Z,24.14
2018-08-13T06:14:46.995Z,24.16
2018-08-13T06:15:19.074Z,24.18
2018-08-13T06:15:51.160Z,24.20
2018-08-13T06:16:23.397Z,24.22
2018-08-13T06:16:55.545Z,24.22
2018-08-13T06:17:27.636Z,24.23
2018-08-13T06:17:59.779Z,24.24
2018-08-13T06:18:31.920Z,24.23
2018-08-13T06:19:04.078Z,24.24
2018-08-13T06:19:36.360Z,24.21
2018-08-13T06:20:08.411Z,24.23
2018-08-13T06:20:40.520Z,24.24
2018-08-13T06:21:12.747Z,24.26
2018-08-13T06:21:44.982Z,24.24
2018-08-13T06:22:17.246Z,24.25
2018-08-13T06:22:49.416Z,24.24
2018-08-13T06:23:21.542Z,24.24
2018-08-13T06:23:53.832Z,24.24
2018-08-13T06:24:26.037Z,24.25
2018-08-13T06:24:58.199Z,24.25
2018-08-13T06:25:30.308Z,24.27
2018-08-13T06:26:02.381Z,24.29
2018-08-13T06:26:34.469Z,24.28
2018-08-13T06:27:06.705Z,24.29
2018-08-13T06:27:38.872Z,24.28
2018-08-13T06:28:10.956Z,24.28
2018-08-13T06:28:43.213Z,24.26
2018-08-13T06:29:15.332Z,24.26
2018-08-13T06:29:47.407Z,24.26
2018-08-13T06:30:19.504Z,24.24
2018-08-13T06:30:51.591Z,24.23
2018-08-13T06:31:23.893Z,24.22
2018-08-13T06:31:56.110Z,24.22
2018-08-13T06:32:28.217Z,24.22
2018-08-13T06:33:01.132Z,24.22
2018-08-13T06:33:33.225Z,24.20
2018-08-13T06:34:05.319Z,24.21
2018-08-13T06:34:37.445Z,24.22
2018-08-13T06:35:09.709Z,24.22
2018-08-13T06:35:41.787Z,24.23
2018-08-13T06:36:13.920Z,24.24
2018-08-13T06:36:46.032Z,24.26
2018-08-13T06:37:18.104Z,24.27
2018-08-13T06:37:50.226Z,24.27
2018-08-13T06:38:22.324Z,24.26
2018-08-13T06:38:54.509Z,24.26
2018-08-13T06:39:26.568Z,24.27
2018-08-13T06:39:58.784Z,24.26
2018-08-13T06:40:30.981Z,24.25
2018-08-13T06:41:03.045Z,24.25
2018-08-13T06:41:35.237Z,24.25
2018-08-13T06:42:07.429Z,24.25
2018-08-13T06:42:39.516Z,24.25
2018-08-13T06:43:11.709Z,24.26
2018-08-13T06:43:43.846Z,24.25
2018-08-13T06:44:16.003Z,24.24
2018-08-13T06:44:48.127Z,24.24
2018-08-13T06:45:20.363Z,24.25
2018-08-13T06:45:52.555Z,24.25
2018-08-13T06:46:24.654Z,24.26
2018-08-13T06:46:56.793Z,24.28
2018-08-13T06:47:29.042Z,24.29
2018-08-13T06:48:01.171Z,24.30
2018-08-13T06:48:33.254Z,24.30
2018-08-13T06:49:05.328Z,24.33
2018-08-13T06:49:37.559Z,24.31
2018-08-13T06:50:09.663Z,24.33
2018-08-13T06:50:41.795Z,24.33
2018-08-13T06:51:13.879Z,24.34
2018-08-13T06:51:46.160Z,24.34
2018-08-13T06:52:18.273Z,24.35
2018-08-13T06:52:50.354Z,24.36
2018-08-13T06:53:22.435Z,24.34
2018-08-13T06:53:54.618Z,24.35